createdAt,value
2018-07-30T00:01:15.081Z,101225.41
2018-07-30T00:04:19.348Z,101225.12
2018-07-30T00:07:23.556Z,101225.98
2018-07-30T00:10:27.768Z,101225.98
2018-07-30T00:13:32.000Z,101224.88
2018-07-30T00:16:36.256Z,101220.20
2018-07-30T00:19:40.501Z,101221.02
2018-07-30T00:22:44.728Z,101225.98
2018-07-30T00:25:49.016Z,101219.90
2018-07-30T00:28:53.409Z,101218.52
2018-07-30T00:31:57.652Z,101215.77
2018-07-30T00:35:01.935Z,101211.06
2018-07-30T00:38:06.169Z,101215.21
2018-07-30T00:41:10.172Z,101213.55
2018-07-30T00:44:14.448Z,101216.61
2018-07-30T00:47:18.684Z,101207.21
2018-07-30T00:50:22.963Z,101213.55
2018-07-30T00:53:27.221Z,101209.71
2018-07-30T00:56:31.494Z,101197.84
2018-07-30T00:59:35.732Z,101201.69
2018-07-30T01:02:39.961Z,101209.43
2018-07-30T01:05:44.334Z,101217.44
2018-07-30T01:08:48.651Z,101220.20
2018-07-30T01:11:52.900Z,101213.59
2018-07-30T01:14:57.242Z,101219.94
2018-07-30T01:18:01.466Z,101214.69
2018-07-30T01:21:05.712Z,101218.55
2018-07-30T01:24:09.956Z,101226.27
2018-07-30T01:27:14.216Z,101208.61
2018-07-30T01:30:18.465Z,101216.61
2018-07-30T01:33:22.713Z,101206.10
2018-07-30T01:36:26.921Z,101214.11
2018-07-30T01:39:31.177Z,101213.25
2018-07-30T01:42:35.695Z,101216.83
2018-07-30T01:45:39.968Z,101216.03
2018-07-30T01:48:44.202Z,101209.95
2018-07-30T01:51:48.429Z,101206.09
2018-07-30T01:54:53.140Z,101208.02
2018-07-30T01:57:57.473Z,101209.38
2018-07-30T02:01:01.725Z,101215.74
2018-07-30T02:04:05.964Z,101218.46
2018-07-30T02:07:10.302Z,101211.81
2018-07-30T02:10:14.545Z,101220.09
2018-07-30T02:13:18.792Z,101222.84
2018-07-30T02:16:23.030Z,101220.38
2018-07-30T02:19:27.293Z,101219.00
2018-07-30T02:22:31.516Z,101219.81
2018-07-30T02:25:35.826Z,101218.16
2018-07-30T02:28:40.084Z,101215.67
2018-07-30T02:31:44.316Z,101220.91
2018-07-30T02:34:48.601Z,101221.47
2018-07-30T02:37:52.849Z,101215.12
2018-07-30T02:40:57.151Z,101219.86
2018-07-30T02:44:01.382Z,101214.34
2018-07-30T02:47:05.644Z,101216.01
2018-07-30T02:50:09.877Z,101214.91
2018-07-30T02:53:14.131Z,101215.48
2018-07-30T02:56:18.419Z,101226.26
2018-07-30T02:59:22.647Z,101221.58
2018-07-30T03:02:26.939Z,101222.41
2018-07-30T03:05:31.186Z,101223.80
2018-07-30T03:08:35.520Z,101225.45
2018-07-30T03:11:40.441Z,101232.65
2018-07-30T03:14:44.840Z,101225.48
2018-07-30T03:17:49.307Z,101238.73
2018-07-30T03:20:53.584Z,101238.44
2018-07-30T03:23:57.872Z,101235.38
2018-07-30T03:27:02.125Z,101230.14
2018-07-30T03:30:08.838Z,101229.02
2018-07-30T03:33:13.109Z,101238.69
2018-07-30T03:36:17.375Z,101236.48
2018-07-30T03:39:21.591Z,101236.22
2018-07-30T03:42:25.868Z,101231.22
2018-07-30T03:45:30.088Z,101233.44
2018-07-30T03:48:34.349Z,101233.44
2018-07-30T03:51:38.628Z,101237.03
2018-07-30T03:54:42.925Z,101231.50
2018-07-30T03:57:47.213Z,101237.06
2018-07-30T04:00:51.473Z,101233.19
2018-07-30T04:03:55.924Z,101228.49
2018-07-30T04:07:00.181Z,101231.80
2018-07-30T04:10:04.529Z,101225.76
2018-07-30T04:13:08.824Z,101234.29
2018-07-30T04:16:13.049Z,101235.95
2018-07-30T04:19:17.357Z,101237.33
2018-07-30T04:22:21.576Z,101241.75
2018-07-30T04:25:25.830Z,101245.87
2018-07-30T04:28:30.089Z,101241.45
2018-07-30T04:31:34.457Z,101249.73
2018-07-30T04:34:38.689Z,101242.25
2018-07-30T04:37:42.981Z,101243.37
2018-07-30T04:40:47.228Z,101249.72
2018-07-30T04:43:51.575Z,101246.65
2018-07-30T04:46:55.760Z,101241.69
2018-07-30T04:50:00.065Z,101243.60
2018-07-30T04:53:04.325Z,101255.48
2018-07-30T04:56:08.596Z,101254.06
2018-07-30T04:59:12.843Z,101253.81
2018-07-30T05:02:17.105Z,101252.97
2018-07-30T05:05:21.365Z,101255.98
2018-07-30T05:08:25.629Z,101257.64
2018-07-30T05:11:29.870Z,101260.36
2018-07-30T05:14:34.115Z,101265.62
2018-07-30T05:17:38.357Z,101264.77
2018-07-30T05:20:42.629Z,101269.45
2018-07-30T05:23:46.902Z,101274.67
2018-07-30T05:26:51.152Z,101276.30
2018-07-30T05:29:55.378Z,101279.61
2018-07-30T05:32:59.637Z,101286.82
2018-07-30T05:36:03.869Z,101290.13
2018-07-30T05:39:10.321Z,101287.92
2018-07-30T05:42:14.594Z,101295.41
2018-07-30T05:45:18.830Z,101288.22
2018-07-30T05:48:23.077Z,101293.12
2018-07-30T05:51:27.360Z,101295.02
2018-07-30T05:54:31.597Z,101292.73
2018-07-30T05:57:35.877Z,101299.27
2018-07-30T06:00:40.114Z,101307.42
2018-07-30T06:03:44.375Z,101299.86
2018-07-30T06:06:48.665Z,101302.02
2018-07-30T06:09:52.895Z,101301.11
2018-07-30T06:12:57.192Z,101297.93
2018-07-30T06:16:01.461Z,101302.18
2018-07-30T06:19:05.786Z,101315.07
2018-07-30T06:22:10.053Z,101314.77
2018-07-30T06:25:14.333Z,101319.98
2018-07-30T06:28:18.607Z,101322.66
2018-07-30T06:31:22.872Z,101321.98
2018-07-30T06:34:27.145Z,101329.31
2018-07-30T06:37:31.460Z,101333.11
2018-07-30T06:40:35.696Z,101337.72
2018-07-30T06:43:39.989Z,101345.10
2018-07-30T06:46:44.243Z,101341.48
2018-07-30T06:49:48.521Z,101343.12
2018-07-30T06:52:52.788Z,101353.61
2018-07-30T06:55:57.098Z,101353.45
2018-07-30T06:59:01.369Z,101354.05
2018-07-30T07:02:05.861Z,101349.46
2018-07-30T07:05:11.361Z,101347.95
2018-07-30T07:08:15.656Z,101356.59
2018-07-30T07:11:19.950Z,101347.76
2018-07-30T07:14:24.251Z,101348.84
2018-07-30T07:17:28.527Z,101347.10
2018-07-30T07:20:32.870Z,101348.14
2018-07-30T07:23:37.144Z,101348.72
2018-07-30T07:26:41.429Z,101341.48
2018-07-30T07:29:45.726Z,101345.57
2018-07-30T07:32:49.997Z,101346.23
2018-07-30T07:35:54.374Z,101345.55
2018-07-30T07:38:58.620Z,101349.84
2018-07-30T07:42:02.945Z,101353.70
2018-07-30T07:45:07.745Z,101355.39
2018-07-30T07:48:12.064Z,101359.23
2018-07-30T07:51:16.334Z,101360.55
2018-07-30T07:54:20.617Z,101368.73
2018-07-30T07:57:25.221Z,101371.77
2018-07-30T08:00:29.522Z,101372.37
2018-07-30T08:03:33.786Z,101376.44
2018-07-30T08:06:38.105Z,101378.66
2018-07-30T08:09:42.417Z,101382.30
2018-07-30T08:12:46.701Z,101378.73
2018-07-30T08:15:51.005Z,101379.27
2018-07-30T08:18:55.257Z,101378.16
2018-07-30T08:21:59.542Z,101387.00
2018-07-30T08:25:03.633Z,101387.21
2018-07-30T08:28:07.890Z,101397.58
2018-07-30T08:31:12.185Z,101394.05
2018-07-30T08:34:16.502Z,101404.72
2018-07-30T08:37:20.797Z,101407.30
2018-07-30T08:40:25.093Z,101414.38
2018-07-30T08:43:29.402Z,101410.58
2018-07-30T08:46:33.780Z,101410.72
2018-07-30T08:49:38.052Z,101411.11
2018-07-30T08:52:42.386Z,101415.11
2018-07-30T08:55:46.672Z,101420.58
2018-07-30T08:58:51.364Z,101421.23
2018-07-30T09:01:55.368Z,101414.95
2018-07-30T09:04:59.625Z,101416.69
2018-07-30T09:08:03.924Z,101416.62
2018-07-30T09:11:08.193Z,101424.60
2018-07-30T09:14:12.464Z,101420.73
2018-07-30T09:17:16.789Z,101419.27
2018-07-30T09:20:20.816Z,101420.66
2018-07-30T09:23:25.115Z,101419.78
2018-07-30T09:26:29.357Z,101425.23
2018-07-30T09:29:33.596Z,101432.33
2018-07-30T09:32:37.853Z,101435.36
2018-07-30T09:35:42.133Z,101447.73
2018-07-30T09:38:46.484Z,101447.28
2018-07-30T09:41:50.709Z,101454.89
2018-07-30T09:44:55.028Z,101459.83
2018-07-30T09:47:59.442Z,101453.94
2018-07-30T09:51:03.729Z,101462.40
2018-07-30T09:54:08.079Z,101460.69
2018-07-30T09:57:12.329Z,101461.13
2018-07-30T10:00:20.699Z,101455.73
2018-07-30T10:03:24.977Z,101458.88
2018-07-30T10:06:29.310Z,101461.76
2018-07-30T10:09:33.589Z,101460.28
2018-07-30T10:12:37.858Z,101465.11
2018-07-30T10:15:42.124Z,101466.61
2018-07-30T10:18:46.426Z,101469.08
2018-07-30T10:21:50.705Z,101468.96
2018-07-30T10:24:54.988Z,101469.02
2018-07-30T10:27:59.317Z,101472.52
2018-07-30T10:31:03.617Z,101467.23
2018-07-30T10:34:07.878Z,101461.75
2018-07-30T10:37:12.161Z,101473.06
2018-07-30T10:40:16.489Z,101466.44
2018-07-30T10:43:20.701Z,101461.14
2018-07-30T10:46:25.019Z,101471.34
2018-07-30T10:49:29.285Z,101455.63
2018-07-30T10:52:33.608Z,101465.13
2018-07-30T10:55:37.877Z,101467.25
2018-07-30T10:58:42.221Z,101463.45
2018-07-30T11:01:46.264Z,101457.64
2018-07-30T11:04:50.540Z,101458.72
2018-07-30T11:07:54.835Z,101459.05
2018-07-30T11:10:59.081Z,101467.98
2018-07-30T11:14:03.350Z,101463.74
2018-07-30T11:17:07.644Z,101469.75
2018-07-30T11:20:11.941Z,101465.08
2018-07-30T11:23:16.236Z,101469.43
2018-07-30T11:26:20.486Z,101467.80
2018-07-30T11:29:24.764Z,101469.43
2018-07-30T11:32:29.086Z,101466.83
2018-07-30T11:35:33.397Z,101470.48
2018-07-30T11:38:37.677Z,101468.40
2018-07-30T11:41:42.226Z,101464.13
2018-07-30T11:44:46.476Z,101465.73
2018-07-30T11:47:50.753Z,101467.73
2018-07-30T11:50:55.014Z,101476.78
2018-07-30T11:53:59.324Z,101474.44
2018-07-30T11:57:03.554Z,101470.01
2018-07-30T12:00:08.060Z,101454.61
2018-07-30T12:03:12.335Z,101459.95
2018-07-30T12:06:16.608Z,101464.57
2018-07-30T12:09:20.896Z,101467.17
2018-07-30T12:12:25.191Z,101467.14
2018-07-30T12:15:29.469Z,101467.51
2018-07-30T12:18:33.730Z,101468.44
2018-07-30T12:21:38.072Z,101466.11
2018-07-30T12:24:42.359Z,101461.97
2018-07-30T12:27:46.621Z,101456.56
2018-07-30T12:30:50.917Z,101465.84
2018-07-30T12:33:55.547Z,101463.13
2018-07-30T12:36:59.785Z,101462.44
2018-07-30T12:40:04.091Z,101457.91
2018-07-30T12:43:08.356Z,101456.83
2018-07-30T12:46:12.670Z,101456.83
2018-07-30T12:49:16.973Z,101457.91
2018-07-30T12:52:21.257Z,101462.52
2018-07-30T12:55:25.596Z,101468.40
2018-07-30T12:58:29.865Z,101459.78
2018-07-30T13:01:34.174Z,101465.40
2018-07-30T13:04:38.440Z,101456.56
2018-07-30T13:07:42.755Z,101455.33
2018-07-30T13:10:47.037Z,101450.25
2018-07-30T13:13:51.412Z,101447.67
2018-07-30T13:16:55.621Z,101444.71
2018-07-30T13:20:00.025Z,101448.52
2018-07-30T13:23:04.078Z,101452.19
2018-07-30T13:26:08.324Z,101457.92
2018-07-30T13:29:13.340Z,101460.77
2018-07-30T13:32:17.576Z,101455.13
2018-07-30T13:35:21.842Z,101462.92
2018-07-30T13:38:26.091Z,101456.55
2018-07-30T13:41:30.326Z,101457.33
2018-07-30T13:44:34.634Z,101456.66
2018-07-30T13:47:38.937Z,101446.60
2018-07-30T13:50:43.152Z,101451.25
2018-07-30T13:53:47.353Z,101446.30
2018-07-30T13:56:51.590Z,101446.76
2018-07-30T13:59:55.850Z,101444.25
2018-07-30T14:03:00.063Z,101443.97
2018-07-30T14:06:04.421Z,101448.99
2018-07-30T14:09:11.130Z,101451.71
2018-07-30T14:12:15.381Z,101456.81
2018-07-30T14:15:19.657Z,101453.52
2018-07-30T14:18:23.941Z,101449.17
2018-07-30T14:21:28.164Z,101447.27
2018-07-30T14:24:32.409Z,101448.91
2018-07-30T14:27:36.636Z,101438.70
2018-07-30T14:30:40.909Z,101436.74
2018-07-30T14:33:45.151Z,101433.28
2018-07-30T14:36:49.500Z,101434.01
2018-07-30T14:39:54.034Z,101435.67
2018-07-30T14:42:58.292Z,101430.31
2018-07-30T14:46:02.556Z,101423.66
2018-07-30T14:49:06.809Z,101429.08
2018-07-30T14:52:11.065Z,101429.91
2018-07-30T14:55:15.339Z,101427.53
2018-07-30T14:58:19.597Z,101432.22
2018-07-30T15:01:23.909Z,101433.94
2018-07-30T15:04:28.226Z,101440.28
2018-07-30T15:07:32.529Z,101432.16
2018-07-30T15:10:36.868Z,101430.83
2018-07-30T15:13:41.138Z,101430.03
2018-07-30T15:16:45.435Z,101422.20
2018-07-30T15:19:49.714Z,101425.62
2018-07-30T15:22:54.017Z,101424.08
2018-07-30T15:25:58.273Z,101424.47
2018-07-30T15:29:02.586Z,101419.47
2018-07-30T15:32:07.032Z,101421.70
2018-07-30T15:35:11.265Z,101420.55
2018-07-30T15:38:15.457Z,101407.57
2018-07-30T15:41:19.708Z,101414.73
2018-07-30T15:44:23.900Z,101414.31
2018-07-30T15:47:28.141Z,101418.19
2018-07-30T15:50:32.336Z,101416.55
2018-07-30T15:53:36.597Z,101412.64
2018-07-30T15:56:40.969Z,101414.22
2018-07-30T15:59:45.198Z,101416.87
2018-07-30T16:02:49.452Z,101410.77
2018-07-30T16:05:53.769Z,101411.64
2018-07-30T16:08:57.985Z,101412.98
2018-07-30T16:12:02.187Z,101402.48
2018-07-30T16:15:08.139Z,101407.00
2018-07-30T16:18:12.370Z,101402.59
2018-07-30T16:21:16.584Z,101405.17
2018-07-30T16:24:20.772Z,101407.91
2018-07-30T16:27:25.073Z,101401.52
2018-07-30T16:30:29.302Z,101404.72
2018-07-30T16:33:33.557Z,101401.33
2018-07-30T16:36:37.796Z,101404.30
2018-07-30T16:39:42.012Z,101403.05
2018-07-30T16:42:46.298Z,101406.09
2018-07-30T16:45:50.544Z,101408.67
2018-07-30T16:48:54.770Z,101404.08
2018-07-30T16:51:58.993Z,101400.28
2018-07-30T16:55:03.245Z,101400.95
2018-07-30T16:58:07.481Z,101399.42
2018-07-30T17:01:11.736Z,101393.59
2018-07-30T17:04:15.978Z,101400.27
2018-07-30T17:07:20.229Z,101397.77
2018-07-30T17:10:24.460Z,101399.66
2018-07-30T17:13:28.766Z,101397.86
2018-07-30T17:16:33.061Z,101407.09
2018-07-30T17:19:37.355Z,101399.70
2018-07-30T17:22:42.363Z,101404.22
2018-07-30T17:25:46.616Z,101402.84
2018-07-30T17:28:50.863Z,101404.55
2018-07-30T17:31:55.092Z,101407.22
2018-07-30T17:34:59.277Z,101411.23
2018-07-30T17:38:03.517Z,101406.21
2018-07-30T17:41:07.511Z,101408.17
2018-07-30T17:44:11.733Z,101412.46
2018-07-30T17:47:15.924Z,101405.36
2018-07-30T17:50:20.131Z,101403.28
2018-07-30T17:53:24.341Z,101400.48
2018-07-30T17:56:28.573Z,101405.18
2018-07-30T17:59:32.752Z,101400.58
2018-07-30T18:02:36.948Z,101409.95
2018-07-30T18:05:41.165Z,101409.12
2018-07-30T18:08:45.372Z,101406.82
2018-07-30T18:11:49.606Z,101405.75
2018-07-30T18:14:53.819Z,101408.38
2018-07-30T18:17:58.018Z,101406.73
2018-07-30T18:21:02.237Z,101401.38
2018-07-30T18:24:06.465Z,101407.81
2018-07-30T18:27:10.642Z,101408.28
2018-07-30T18:30:14.838Z,101414.86
2018-07-30T18:33:19.030Z,101416.64
2018-07-30T18:36:23.242Z,101415.94
2018-07-30T18:39:27.467Z,101420.14
2018-07-30T18:42:31.673Z,101419.21
2018-07-30T18:45:35.881Z,101411.19
2018-07-30T18:48:40.101Z,101416.84
2018-07-30T18:51:44.293Z,101419.06
2018-07-30T18:54:48.561Z,101422.46
2018-07-30T18:57:52.760Z,101425.16
2018-07-30T19:00:56.968Z,101424.80
2018-07-30T19:04:01.148Z,101430.19
2018-07-30T19:07:05.372Z,101431.02
2018-07-30T19:10:09.565Z,101432.34
2018-07-30T19:13:13.804Z,101436.95
2018-07-30T19:16:18.010Z,101435.55
2018-07-30T19:19:22.956Z,101439.05
2018-07-30T19:22:27.158Z,101446.10
2018-07-30T19:25:31.389Z,101447.75
2018-07-30T19:28:35.592Z,101446.33
2018-07-30T19:31:39.794Z,101445.14
2018-07-30T19:34:43.800Z,101447.55
2018-07-30T19:37:48.005Z,101451.90
2018-07-30T19:40:52.217Z,101451.54
2018-07-30T19:43:56.479Z,101448.36
2018-07-30T19:47:00.678Z,101446.23
2018-07-30T19:50:05.032Z,101452.55
2018-07-30T19:53:09.245Z,101446.77
2018-07-30T19:56:13.457Z,101451.66
2018-07-30T19:59:17.681Z,101446.24
2018-07-30T20:02:21.880Z,101445.89
2018-07-30T20:05:26.076Z,101446.66
2018-07-30T20:08:30.304Z,101445.66
2018-07-30T20:11:34.529Z,101444.91
2018-07-30T20:14:38.746Z,101447.27
2018-07-30T20:17:43.000Z,101444.30
2018-07-30T20:20:47.180Z,101447.74
2018-07-30T20:23:51.380Z,101444.51
2018-07-30T20:26:55.579Z,101449.04
2018-07-30T20:29:59.800Z,101451.82
2018-07-30T20:33:04.018Z,101451.82
2018-07-30T20:36:08.213Z,101454.98
2018-07-30T20:39:12.428Z,101454.76
2018-07-30T20:42:16.634Z,101461.52
2018-07-30T20:45:20.865Z,101461.52
2018-07-30T20:48:25.065Z,101461.33
2018-07-30T20:51:29.272Z,101468.61
2018-07-30T20:54:33.501Z,101465.83
2018-07-30T20:57:37.693Z,101463.88
2018-07-30T21:00:41.913Z,101473.87
2018-07-30T21:03:46.106Z,101475.23
2018-07-30T21:06:50.106Z,101478.34
2018-07-30T21:09:54.313Z,101466.73
2018-07-30T21:12:58.537Z,101465.70
2018-07-30T21:16:02.768Z,101464.05
2018-07-30T21:19:06.992Z,101459.39
2018-07-30T21:22:11.185Z,101459.94
2018-07-30T21:25:15.416Z,101456.98
2018-07-30T21:28:19.619Z,101451.47
2018-07-30T21:31:23.812Z,101454.50
2018-07-30T21:34:28.077Z,101455.95
2018-07-30T21:37:32.294Z,101457.16
2018-07-30T21:40:36.493Z,101454.93
2018-07-30T21:43:40.694Z,101459.20
2018-07-30T21:46:44.890Z,101458.67
2018-07-30T21:49:49.093Z,101462.05
2018-07-30T21:52:53.296Z,101457.14
2018-07-30T21:55:57.525Z,101456.64
2018-07-30T21:59:01.730Z,101460.02
2018-07-30T22:02:06.289Z,101455.36
2018-07-30T22:05:14.600Z,101456.77
2018-07-30T22:08:18.838Z,101455.13
2018-07-30T22:11:23.045Z,101450.70
2018-07-30T22:14:27.245Z,101451.56
2018-07-30T22:17:31.452Z,101457.20
2018-07-30T22:20:35.675Z,101445.28
2018-07-30T22:23:39.896Z,101442.86
2018-07-30T22:26:44.109Z,101443.49
2018-07-30T22:29:48.336Z,101430.55
2018-07-30T22:32:52.512Z,101431.69
2018-07-30T22:35:56.745Z,101432.58
2018-07-30T22:39:00.961Z,101432.88
2018-07-30T22:42:04.949Z,101429.59
2018-07-30T22:45:09.169Z,101434.27
2018-07-30T22:48:13.368Z,101435.64
2018-07-30T22:51:17.597Z,101433.67
2018-07-30T22:54:21.814Z,101439.52
2018-07-30T22:57:26.013Z,101442.88
2018-07-30T23:00:30.253Z,101440.36
2018-07-30T23:03:34.476Z,101436.24
2018-07-30T23:06:38.724Z,101436.30
2018-07-30T23:09:42.951Z,101435.48
2018-07-30T23:12:47.160Z,101426.95
2018-07-30T23:15:51.392Z,101428.64
2018-07-30T23:18:55.764Z,101424.77
2018-07-30T23:21:59.960Z,101417.58
2018-07-30T23:25:04.200Z,101420.65
2018-07-30T23:28:08.428Z,101418.43
2018-07-30T23:31:12.636Z,101407.88
2018-07-30T23:34:16.841Z,101406.19
2018-07-30T23:37:21.157Z,101411.45
2018-07-30T23:40:25.253Z,101401.19
2018-07-30T23:43:30.291Z,101404.00
2018-07-30T23:46:34.509Z,101404.02
2018-07-30T23:49:38.761Z,101390.18
2018-07-30T23:52:42.941Z,101395.98
2018-07-30T23:55:47.149Z,101394.05
2018-07-30T23:58:51.384Z,101397.67
